Time;durP1;ratioP1;P1;durP2;ratioP2;P2;SDS_P1;SDS_P2;PMS_P1;PMS_P2;Temp;Humidity;BMP_temperature;BMP_pressure;BME280_temperature;BME280_humidity;BME280_pressure;Samples;Min_cycle;Max_cycle;Signal;HPM_P1;HPM_P2
2022/07/08 00:00:39;;;;;;;1.30;0.38;;;16.60;99.40;;;;;;4984517;28;20647;-85
2022/07/08 00:03:19;;;;;;;1.33;0.20;;;16.60;99.30;;;;;;4977894;28;20058;-85
2022/07/08 00:06:42;;;;;;;4.35;0.88;;;16.60;99.40;;;;;;4977357;28;20098;-85
2022/07/08 00:09:11;;;;;;;0.70;0.20;;;16.40;99.40;;;;;;4979003;28;20149;-85
2022/07/08 00:11:47;;;;;;;2.42;0.28;;;16.40;99.70;;;;;;4976416;28;20118;-85
2022/07/08 00:14:49;;;;;;;1.80;0.68;;;16.40;99.80;;;;;;4975792;28;20019;-85
2022/07/08 00:17:23;;;;;;;2.38;0.57;;;16.10;99.90;;;;;;4977080;28;20061;-85
2022/07/08 00:19:53;;;;;;;1.27;0.40;;;16.30;99.80;;;;;;4975854;28;20049;-85
2022/07/08 00:22:24;;;;;;;5.35;0.40;;;16.30;99.90;;;;;;4979876;28;20026;-85
2022/07/08 00:25:16;;;;;;;2.53;0.40;;;16.30;99.90;;;;;;4979123;28;20030;-85
2022/07/08 00:27:42;;;;;;;;;;;16.80;99.90;;;;;;4982410;28;20022;-85
2022/07/08 00:30:12;;;;;;;0.63;0.32;;;16.20;99.90;;;;;;4976414;28;20389;-85
2022/07/08 00:32:43;;;;;;;2.28;0.22;;;16.20;99.40;;;;;;4978757;28;20066;-85
2022/07/08 00:35:09;;;;;;;1.30;0.43;;;16.10;98.90;;;;;;4977456;28;20066;-86
2022/07/08 00:37:53;;;;;;;1.05;0.45;;;16.10;98.50;;;;;;4977336;28;20034;-85
2022/07/08 00:40:20;;;;;;;3.80;0.40;;;16.00;98.10;;;;;;4970223;28;20038;-85
2022/07/08 00:42:48;;;;;;;1.48;0.32;;;15.90;96.80;;;;;;4979357;28;20041;-85
2022/07/08 00:45:17;;;;;;;1.60;0.47;;;15.90;97.20;;;;;;4978017;28;20035;-85
2022/07/08 00:47:46;;;;;;;1.38;0.60;;;15.80;96.90;;;;;;4984293;28;20053;-85
2022/07/08 00:50:13;;;;;;;1.48;0.43;;;15.80;96.90;;;;;;4976630;28;20151;-85
2022/07/08 00:53:12;;;;;;;2.63;0.40;;;15.40;97.20;;;;;;4976035;28;20034;-85
2022/07/08 00:55:44;;;;;;;1.55;0.57;;;16.50;97.90;;;;;;4981535;28;20030;-85
2022/07/08 00:58:12;;;;;;;;;;;15.70;97.70;;;;;;4979188;28;20039;-85
2022/07/08 01:00:38;;;;;;;1.92;0.82;;;15.70;97.60;;;;;;4982944;28;19918;-85
2022/07/08 01:03:07;;;;;;;2.42;0.50;;;15.60;97.90;;;;;;4981416;28;20069;-85
2022/07/08 01:05:42;;;;;;;2.55;0.85;;;15.50;98.10;;;;;;4977092;28;20502;-85
2022/07/08 01:08:13;;;;;;;3.40;0.85;;;15.50;98.30;;;;;;4979338;28;20062;-85
2022/07/08 01:10:45;;;;;;;3.25;0.60;;;15.40;98.40;;;;;;4976611;28;20056;-85
2022/07/08 01:16:04;;;;;;;1.65;0.70;;;15.30;99.00;;;;;;4979019;28;20118;-84
2022/07/08 01:18:39;;;;;;;4.13;0.63;;;15.20;99.00;;;;;;4974501;28;20026;-85
2022/07/08 01:33:08;;;;;;;3.78;0.70;;;14.90;98.70;;;;;;5119054;22;20052;-88
2022/07/08 01:35:34;;;;;;;2.25;0.80;;;14.80;98.40;;;;;;5070881;28;20055;-86
2022/07/08 01:37:59;;;;;;;2.92;0.85;;;14.80;98.50;;;;;;5094176;28;20032;-87
2022/07/08 01:40:25;;;;;;;2.55;0.68;;;14.80;98.50;;;;;;5071152;28;20096;-88
2022/07/08 01:42:51;;;;;;;1.23;0.63;;;14.70;98.40;;;;;;5076412;28;20048;-87
2022/07/08 01:45:17;;;;;;;2.30;0.65;;;14.60;98.50;;;;;;5092273;28;20028;-87
2022/07/08 01:47:43;;;;;;;4.15;0.77;;;14.70;98.80;;;;;;5071417;28;20058;-88
2022/07/08 01:50:09;;;;;;;2.05;0.63;;;14.70;99.00;;;;;;5094388;28;20020;-87
2022/07/08 01:52:35;;;;;;;4.10;1.10;;;14.70;99.90;;;;;;5090777;28;20025;-87
2022/07/08 01:55:00;;;;;;;1.80;0.77;;;14.70;99.50;;;;;;5070137;28;20024;-88
2022/07/08 01:57:26;;;;;;;2.70;0.90;;;14.60;99.20;;;;;;5068854;28;20028;-88
2022/07/08 01:59:52;;;;;;;3.53;0.80;;;14.60;99.30;;;;;;5070594;28;20044;-88
2022/07/08 02:02:19;;;;;;;2.13;0.90;;;14.20;99.90;;;;;;5068961;28;20060;-87
2022/07/08 02:04:46;;;;;;;3.10;0.60;;;14.30;99.00;;;;;;5068911;28;20036;-87
2022/07/08 02:07:12;;;;;;;3.00;0.60;;;14.20;99.00;;;;;;5069017;28;20107;-87
2022/07/08 02:09:38;;;;;;;3.45;0.63;;;14.50;99.10;;;;;;5064179;28;20033;-88
2022/07/08 02:12:20;;;;;;;2.20;0.60;;;14.20;99.10;;;;;;5073389;28;20114;-87
2022/07/08 02:14:46;;;;;;;;;;;14.20;99.10;;;;;;5065085;28;20150;-88
2022/07/08 02:17:14;;;;;;;2.30;0.50;;;14.30;99.40;;;;;;5067118;28;19919;-88
2022/07/08 02:19:40;;;;;;;3.75;0.70;;;14.20;99.40;;;;;;5064227;28;20032;-87
2022/07/08 02:22:06;;;;;;;2.17;0.50;;;14.10;99.50;;;;;;5074016;28;20127;-88
2022/07/08 02:24:32;;;;;;;1.58;0.50;;;14.00;99.50;;;;;;5068898;28;20108;-87
2022/07/08 02:26:57;;;;;;;1.90;0.70;;;14.00;99.60;;;;;;5070533;28;20039;-87
2022/07/08 02:29:23;;;;;;;2.88;0.50;;;14.00;99.90;;;;;;5096059;28;20028;-88
2022/07/08 02:31:49;;;;;;;5.07;0.82;;;13.90;99.90;;;;;;5071614;28;20040;-87
2022/07/08 02:34:14;;;;;;;1.85;0.95;;;13.90;99.90;;;;;;5065574;28;20039;-87
2022/07/08 02:36:40;;;;;;;2.33;1.05;;;13.80;99.90;;;;;;5061241;28;20024;-87
2022/07/08 02:39:06;;;;;;;2.92;0.75;;;13.90;99.90;;;;;;5057185;28;20060;-87
2022/07/08 02:41:31;;;;;;;2.90;0.77;;;13.80;99.90;;;;;;5061504;28;20021;-88
2022/07/08 02:43:57;;;;;;;3.05;0.65;;;13.80;99.90;;;;;;5056247;28;20039;-88
2022/07/08 02:46:23;;;;;;;1.42;0.60;;;13.70;99.90;;;;;;5055255;28;20021;-87
2022/07/08 02:48:48;;;;;;;2.95;0.50;;;14.00;99.90;;;;;;5078240;28;20028;-88
2022/07/08 02:51:14;;;;;;;1.67;0.40;;;13.80;99.90;;;;;;5062250;28;20024;-87
2022/07/08 02:53:40;;;;;;;1.35;0.50;;;13.70;99.90;;;;;;5052933;28;20078;-88
2022/07/08 02:56:06;;;;;;;1.50;0.70;;;13.70;99.90;;;;;;5079115;28;20536;-87
2022/07/08 02:58:31;;;;;;;1.40;0.60;;;13.70;99.90;;;;;;5052372;28;20020;-87
2022/07/08 03:01:01;;;;;;;1.00;0.40;;;13.60;99.90;;;;;;5054896;28;20035;-88
2022/07/08 03:03:27;;;;;;;1.50;0.40;;;14.10;99.90;;;;;;5074663;28;20046;-87
2022/07/08 03:05:52;;;;;;;0.85;0.30;;;13.50;99.90;;;;;;5057345;28;20024;-87
2022/07/08 03:08:18;;;;;;;2.05;0.60;;;13.50;99.90;;;;;;5052626;28;20024;-87
2022/07/08 03:10:44;;;;;;;3.10;0.50;;;13.50;99.90;;;;;;5058132;28;20020;-87
2022/07/08 03:13:09;;;;;;;0.88;0.40;;;14.00;99.90;;;;;;5056517;28;20044;-88
2022/07/08 03:15:35;;;;;;;1.38;0.60;;;13.60;99.90;;;;;;5058475;28;20115;-87
2022/07/08 03:18:00;;;;;;;1.35;0.70;;;13.50;99.90;;;;;;5057507;28;20025;-88
2022/07/08 03:20:26;;;;;;;6.88;0.70;;;13.60;99.90;;;;;;5076975;28;20012;-88
2022/07/08 03:22:52;;;;;;;1.77;0.52;;;13.60;99.90;;;;;;5076339;28;20020;-87
2022/07/08 03:25:18;;;;;;;1.55;0.52;;;13.80;99.90;;;;;;5055272;28;20028;-87
2022/07/08 03:27:43;;;;;;;1.33;0.77;;;13.60;99.90;;;;;;5054153;28;20507;-86
2022/07/08 03:30:09;;;;;;;2.30;0.98;;;13.60;99.90;;;;;;5073273;28;20024;-88
2022/07/08 03:32:35;;;;;;;1.13;0.40;;;13.50;99.90;;;;;;5051812;28;20052;-88
2022/07/08 03:35:00;;;;;;;0.65;0.50;;;13.50;99.90;;;;;;5054109;28;20115;-87
2022/07/08 03:37:26;;;;;;;0.90;0.40;;;13.50;99.90;;;;;;5054920;28;20032;-87
2022/07/08 03:39:53;;;;;;;3.60;0.57;;;13.50;99.90;;;;;;5051601;28;20040;-87
2022/07/08 03:42:19;;;;;;;2.30;0.50;;;13.50;99.90;;;;;;5054624;28;20047;-88
2022/07/08 03:44:45;;;;;;;0.80;0.35;;;13.50;99.90;;;;;;5072175;28;20586;-88
2022/07/08 03:47:11;;;;;;;3.30;0.98;;;13.60;99.90;;;;;;5053868;28;20029;-88
2022/07/08 03:49:36;;;;;;;1.88;0.60;;;13.50;99.90;;;;;;5055133;28;20519;-88
2022/07/08 03:52:02;;;;;;;1.83;0.45;;;13.50;99.90;;;;;;5054004;28;20027;-87
2022/07/08 03:54:28;;;;;;;1.70;0.45;;;13.50;99.90;;;;;;5071670;28;20088;-88
2022/07/08 03:56:54;;;;;;;1.20;0.50;;;13.50;99.90;;;;;;5055420;28;20036;-88
2022/07/08 03:59:19;;;;;;;1.92;0.45;;;13.50;99.90;;;;;;5053763;28;20488;-88
2022/07/08 04:01:48;;;;;;;3.13;0.50;;;13.50;99.90;;;;;;5054363;28;20537;-88
2022/07/08 04:04:14;;;;;;;1.38;0.40;;;13.40;99.90;;;;;;5054153;28;20036;-87
2022/07/08 04:06:40;;;;;;;1.67;0.60;;;13.40;99.90;;;;;;5054273;28;20500;-88
2022/07/08 04:09:06;;;;;;;1.58;0.57;;;13.50;99.90;;;;;;5053152;28;20063;-87
2022/07/08 04:11:31;;;;;;;2.35;0.55;;;13.50;99.90;;;;;;5054359;28;20115;-87
2022/07/08 04:13:57;;;;;;;3.67;0.50;;;13.50;99.90;;;;;;5052890;28;20396;-88
2022/07/08 04:16:23;;;;;;;1.88;0.70;;;13.50;99.90;;;;;;5071239;28;20492;-87
2022/07/08 04:18:48;;;;;;;2.67;0.55;;;13.50;99.90;;;;;;5053746;28;20523;-88
2022/07/08 04:21:14;;;;;;;1.65;0.47;;;13.40;99.90;;;;;;5053166;28;20035;-88
2022/07/08 04:23:40;;;;;;;3.00;0.60;;;13.50;99.90;;;;;;5050488;28;20484;-88
2022/07/08 04:26:07;;;;;;;3.70;0.65;;;13.60;99.90;;;;;;5052587;28;20079;-88
2022/07/08 04:28:33;;;;;;;2.22;0.43;;;13.40;99.90;;;;;;5051757;28;20036;-88
2022/07/08 04:30:59;;;;;;;1.25;0.40;;;13.50;99.90;;;;;;5071434;28;20102;-87
2022/07/08 04:33:25;;;;;;;2.10;0.50;;;13.50;99.90;;;;;;5051844;28;20481;-87
2022/07/08 04:35:51;;;;;;;0.85;0.50;;;13.50;99.90;;;;;;5052296;28;20148;-87
2022/07/08 04:38:17;;;;;;;2.85;0.50;;;13.50;99.90;;;;;;5068990;28;20025;-88
2022/07/08 04:40:42;;;;;;;1.52;0.45;;;13.50;99.90;;;;;;5072743;28;20029;-88
2022/07/08 04:43:09;;;;;;;1.08;0.47;;;13.70;99.90;;;;;;5071907;28;20069;-88
2022/07/08 04:45:34;;;;;;;2.80;0.40;;;13.60;99.90;;;;;;5071150;28;20542;-88
2022/07/08 04:48:00;;;;;;;1.33;0.32;;;13.70;99.90;;;;;;5051921;28;20024;-87
2022/07/08 04:50:26;;;;;;;2.70;0.40;;;13.70;99.90;;;;;;5050269;28;20488;-88
2022/07/08 04:52:52;;;;;;;2.33;0.63;;;13.80;99.90;;;;;;5068573;28;20068;-88
2022/07/08 04:55:30;;;;;;;2.05;0.52;;;14.00;99.90;;;;;;5052022;28;20119;-88
2022/07/08 04:57:59;;;;;;;0.90;0.30;;;14.00;99.90;;;;;;5051071;28;20530;-87
2022/07/08 05:00:25;;;;;;;0.95;0.32;;;14.10;99.90;;;;;;5051652;28;20484;-87
2022/07/08 05:02:51;;;;;;;3.45;0.77;;;14.30;99.90;;;;;;5070475;28;20036;-87
2022/07/08 05:05:21;;;;;;;0.90;0.40;;;14.30;99.90;;;;;;5049016;28;20033;-87
2022/07/08 05:07:50;;;;;;;0.63;0.30;;;14.40;99.90;;;;;;5049612;28;20557;-88
2022/07/08 05:10:17;;;;;;;3.25;0.70;;;14.40;99.90;;;;;;5043441;28;20103;-88
2022/07/08 05:12:44;;;;;;;0.95;0.30;;;14.50;99.90;;;;;;5051477;28;20074;-87
2022/07/08 05:15:12;;;;;;;3.00;0.55;;;14.50;99.90;;;;;;5070005;28;20027;-89
2022/07/08 05:17:39;;;;;;;2.13;0.75;;;14.60;99.90;;;;;;5071658;28;20021;-89
2022/07/08 05:20:09;;;;;;;2.53;0.30;;;14.70;99.90;;;;;;5071070;28;20089;-89
2022/07/08 05:22:36;;;;;;;0.82;0.35;;;14.70;99.40;;;;;;5053036;28;20399;-89
2022/07/08 05:25:05;;;;;;;2.05;0.40;;;14.70;99.70;;;;;;5054447;28;20045;-89
2022/07/08 05:27:30;;;;;;;2.83;0.40;;;14.80;99.50;;;;;;5053997;28;20025;-89
2022/07/08 05:30:02;;;;;;;1.38;0.35;;;14.90;98.90;;;;;;5052294;28;20028;-89
2022/07/08 05:32:29;;;;;;;1.35;0.20;;;15.00;99.10;;;;;;5055284;28;20025;-90
2022/07/08 05:34:55;;;;;;;1.13;0.30;;;15.10;98.30;;;;;;5049036;28;20167;-89
2022/07/08 05:37:22;;;;;;;2.35;0.50;;;15.20;99.00;;;;;;5058623;28;20078;-89
2022/07/08 05:39:49;;;;;;;3.78;0.50;;;15.30;98.60;;;;;;5052481;28;20511;-89
2022/07/08 05:42:15;;;;;;;1.45;0.43;;;15.30;97.80;;;;;;5065346;28;20031;-89
2022/07/08 05:44:41;;;;;;;1.52;0.40;;;15.30;97.70;;;;;;5048984;28;20397;-90
2022/07/08 05:47:08;;;;;;;4.22;0.52;;;15.40;97.50;;;;;;5080457;28;20021;-88
2022/07/08 05:49:35;;;;;;;2.95;0.30;;;15.40;97.80;;;;;;5070748;28;20031;-88
2022/07/08 05:52:03;;;;;;;2.28;0.50;;;15.50;97.60;;;;;;5050836;28;20047;-89
2022/07/08 05:54:31;;;;;;;2.67;0.60;;;15.50;97.60;;;;;;5052401;28;20439;-89
2022/07/08 05:56:57;;;;;;;2.00;0.30;;;15.60;97.40;;;;;;5052486;28;20025;-90
2022/07/08 05:59:23;;;;;;;2.78;0.52;;;15.60;97.20;;;;;;5053189;28;20017;-89
2022/07/08 06:01:48;;;;;;;1.48;0.40;;;15.70;96.90;;;;;;5052576;28;20034;-89
2022/07/08 06:04:14;;;;;;;2.10;0.47;;;15.70;96.90;;;;;;5057760;28;20024;-89
2022/07/08 06:06:39;;;;;;;1.73;0.40;;;15.80;96.90;;;;;;5054205;28;20033;-89
2022/07/08 06:09:05;;;;;;;1.13;0.40;;;15.90;96.80;;;;;;5043404;28;20078;-89
2022/07/08 06:11:32;;;;;;;3.55;0.50;;;16.00;96.70;;;;;;5050672;28;20029;-89
2022/07/08 06:14:00;;;;;;;0.88;0.32;;;16.00;96.40;;;;;;5053408;28;20085;-89
2022/07/08 06:16:27;;;;;;;3.97;0.40;;;16.00;96.60;;;;;;5074552;28;20056;-89
2022/07/08 06:18:53;;;;;;;2.97;0.43;;;16.10;96.50;;;;;;5056443;28;20032;-89
2022/07/08 06:21:18;;;;;;;1.88;0.50;;;16.20;96.30;;;;;;5055079;28;20029;-88
2022/07/08 06:23:44;;;;;;;2.78;0.38;;;16.30;95.70;;;;;;5053903;28;20540;-89
2022/07/08 06:26:15;;;;;;;3.58;0.60;;;16.20;95.90;;;;;;5051244;28;20119;-90
2022/07/08 06:28:40;;;;;;;1.75;0.30;;;16.20;95.40;;;;;;5053234;28;20025;-89
2022/07/08 06:31:06;;;;;;;2.78;0.50;;;16.30;95.90;;;;;;5054808;28;20162;-89
2022/07/08 06:33:32;;;;;;;4.05;0.80;;;16.20;95.90;;;;;;5080101;28;20028;-89
2022/07/08 06:35:58;;;;;;;3.22;0.68;;;16.10;95.90;;;;;;5074363;28;20021;-90
2022/07/08 06:38:30;;;;;;;0.85;0.30;;;16.20;95.80;;;;;;5056000;28;20028;-90
2022/07/08 06:40:56;;;;;;;2.35;0.30;;;16.30;96.30;;;;;;5059809;28;20141;-89
2022/07/08 06:43:22;;;;;;;0.50;0.20;;;16.60;95.00;;;;;;5060883;28;20480;-90
2022/07/08 06:45:49;;;;;;;5.57;0.70;;;16.90;95.20;;;;;;5057619;28;20028;-89
2022/07/08 06:48:15;;;;;;;1.30;0.55;;;16.80;94.70;;;;;;5050206;28;20040;-89
2022/07/08 06:50:41;;;;;;;3.45;0.40;;;16.90;94.70;;;;;;5066144;28;20477;-90
2022/07/08 06:53:07;;;;;;;1.67;0.65;;;16.90;94.70;;;;;;5057094;28;20051;-88
2022/07/08 06:55:33;;;;;;;2.53;0.40;;;16.70;94.90;;;;;;5054086;28;20055;-90
2022/07/08 06:57:58;;;;;;;3.60;0.45;;;16.70;94.60;;;;;;5088407;28;20031;-90
2022/07/08 07:00:24;;;;;;;3.90;0.50;;;16.60;94.30;;;;;;5060167;28;20119;-90
2022/07/08 07:02:50;;;;;;;3.08;0.55;;;16.60;94.60;;;;;;5051921;28;20401;-90
2022/07/08 07:05:19;;;;;;;1.80;0.40;;;16.80;95.00;;;;;;5052539;28;20032;-91
2022/07/08 07:07:45;;;;;;;1.75;0.52;;;16.40;95.20;;;;;;5045385;28;20400;-91
2022/07/08 07:10:10;;;;;;;1.70;0.40;;;16.50;94.90;;;;;;5050314;28;20024;-90
2022/07/08 07:12:36;;;;;;;2.28;0.40;;;16.70;94.50;;;;;;5061117;28;20024;-89
2022/07/08 07:15:02;;;;;;;1.33;0.50;;;16.70;94.10;;;;;;5056408;28;20025;-90
2022/07/08 07:17:28;;;;;;;3.08;0.40;;;16.70;94.00;;;;;;5057437;28;20067;-90
2022/07/08 07:19:54;;;;;;;3.33;0.45;;;16.90;94.10;;;;;;5063160;28;20063;-91
2022/07/08 07:22:20;;;;;;;1.05;0.40;;;17.30;93.40;;;;;;5047159;28;20036;-91
2022/07/08 07:24:46;;;;;;;3.03;0.40;;;17.40;92.80;;;;;;5051555;28;20511;-91
2022/07/08 07:27:11;;;;;;;0.82;0.30;;;17.40;92.70;;;;;;5058490;28;20157;-92
2022/07/08 07:29:37;;;;;;;0.40;0.32;;;17.40;92.10;;;;;;5055809;28;20111;-90
2022/07/08 07:32:03;;;;;;;6.18;0.50;;;17.80;92.10;;;;;;5058235;28;20570;-90
2022/07/08 07:34:29;;;;;;;0.60;0.17;;;18.30;92.10;;;;;;5050045;28;20040;-90
2022/07/08 07:36:57;;;;;;;1.55;0.20;;;18.40;91.60;;;;;;5057813;28;20021;-90
2022/07/08 07:39:23;;;;;;;1.73;0.38;;;18.60;90.60;;;;;;5058008;28;20021;-91
2022/07/08 07:41:49;;;;;;;3.00;0.50;;;18.50;90.50;;;;;;5048821;28;20044;-90
2022/07/08 07:44:14;;;;;;;2.83;0.40;;;18.50;90.50;;;;;;5050321;28;20024;-92
2022/07/08 07:46:48;;;;;;;0.57;0.20;;;18.40;90.30;;;;;;5057873;28;20039;-91
2022/07/08 07:49:14;;;;;;;1.25;0.35;;;18.70;90.10;;;;;;5055773;28;20024;-90
2022/07/08 07:51:47;;;;;;;0.32;0.20;;;18.80;89.00;;;;;;5058524;28;20024;-92
2022/07/08 07:54:13;;;;;;;1.55;0.20;;;18.80;87.80;;;;;;5055830;28;20090;-91
2022/07/08 07:56:39;;;;;;;1.75;0.50;;;18.70;88.40;;;;;;5054100;28;20068;-90
2022/07/08 07:59:04;;;;;;;1.10;0.28;;;18.70;88.70;;;;;;5053151;28;20032;-90
2022/07/08 08:01:30;;;;;;;2.30;0.20;;;18.70;88.00;;;;;;5074484;28;20028;-92
2022/07/08 08:04:04;;;;;;;0.52;0.20;;;18.50;88.70;;;;;;5052739;28;20484;-91
2022/07/08 08:06:30;;;;;;;1.60;0.45;;;18.30;89.50;;;;;;5051345;28;20499;-89
2022/07/08 08:08:57;;;;;;;2.67;0.38;;;18.00;90.40;;;;;;5062118;28;20052;-90
2022/07/08 08:11:23;;;;;;;4.15;0.30;;;18.30;90.40;;;;;;5059485;28;20092;-90
2022/07/08 08:13:49;;;;;;;1.63;0.30;;;18.60;89.90;;;;;;5060316;28;20031;-89
2022/07/08 08:16:14;;;;;;;3.60;0.40;;;18.80;87.90;;;;;;5056143;28;20020;-91
2022/07/08 08:18:43;;;;;;;0.75;0.28;;;19.00;88.00;;;;;;5075201;28;20024;-90
2022/07/08 08:21:11;;;;;;;1.05;0.20;;;19.00;88.10;;;;;;5058799;28;20032;-91
2022/07/08 08:23:37;;;;;;;0.63;0.20;;;18.80;87.50;;;;;;5057858;28;20074;-91
2022/07/08 08:26:03;;;;;;;1.35;0.40;;;18.70;87.80;;;;;;5051494;28;20492;-91
2022/07/08 08:28:37;;;;;;;1.58;0.28;;;18.40;87.70;;;;;;5046533;28;20040;-92
2022/07/08 08:31:05;;;;;;;0.63;0.30;;;18.50;87.80;;;;;;5053552;28;20046;-92
2022/07/08 08:33:31;;;;;;;1.48;0.40;;;18.70;88.10;;;;;;5060830;28;20028;-90
2022/07/08 08:36:06;;;;;;;0.60;0.20;;;18.70;86.40;;;;;;5054282;28;20024;-91
2022/07/08 08:41:54;;;;;;;4.95;0.63;;;18.70;87.50;;;;;;5080999;28;20024;-92
2022/07/08 08:44:21;;;;;;;1.13;0.30;;;18.40;87.20;;;;;;5055357;28;20078;-90
2022/07/08 08:47:34;;;;;;;0.85;0.40;;;18.20;88.40;;;;;;5069473;28;20437;-92
2022/07/08 08:53:02;;;;;;;0.65;0.20;;;18.90;86.90;;;;;;5076594;28;20077;-92
2022/07/08 08:55:54;;;;;;;1.23;0.30;;;19.20;87.10;;;;;;5056164;28;20029;-92
2022/07/08 08:58:39;;;;;;;2.45;0.50;;;19.50;85.00;;;;;;5045635;28;20024;-92
2022/07/08 09:05:08;;;;;;;0.70;0.20;;;20.00;83.40;;;;;;5017763;28;20040;-92
2022/07/08 09:07:34;;;;;;;1.10;0.30;;;20.20;83.10;;;;;;5013116;28;20041;-90
2022/07/08 09:10:09;;;;;;;0.70;0.30;;;20.60;83.70;;;;;;5063628;28;20078;-91
2022/07/08 09:13:04;;;;;;;0.90;0.20;;;20.70;82.90;;;;;;5044459;28;20025;-92
2022/07/08 09:15:47;;;;;;;0.90;0.22;;;21.00;82.30;;;;;;5045260;28;20389;-91
2022/07/08 09:18:20;;;;;;;2.10;0.28;;;21.60;80.00;;;;;;5060249;28;20083;-92
2022/07/08 09:20:52;;;;;;;1.75;0.20;;;21.70;78.90;;;;;;5063685;28;20097;-90
2022/07/08 09:23:32;;;;;;;2.03;0.30;;;21.30;79.40;;;;;;5052154;28;20051;-91
2022/07/08 09:25:59;;;;;;;2.17;0.32;;;21.30;79.70;;;;;;5051916;28;20036;-90
2022/07/08 09:28:33;;;;;;;1.27;0.28;;;21.30;80.20;;;;;;5044271;28;20048;-91
2022/07/08 09:31:05;;;;;;;0.45;0.13;;;21.40;80.80;;;;;;5047331;28;20024;-91
2022/07/08 09:33:31;;;;;;;1.35;0.50;;;21.70;78.80;;;;;;5052043;28;20021;-90
2022/07/08 09:36:06;;;;;;;0.88;0.20;;;21.50;77.60;;;;;;5051052;28;20026;-91
2022/07/08 09:38:42;;;;;;;0.70;0.10;;;21.60;77.30;;;;;;5060233;28;20035;-90
2022/07/08 09:41:09;;;;;;;3.05;0.70;;;21.30;78.30;;;;;;5047682;28;20107;-91
2022/07/08 09:43:49;;;;;;;1.05;0.35;;;21.50;78.00;;;;;;5047886;28;20449;-90
2022/07/08 09:46:22;;;;;;;3.05;0.32;;;21.40;78.00;;;;;;5044032;28;20023;-90
2022/07/08 09:48:48;;;;;;;2.47;0.50;;;21.50;78.30;;;;;;5056229;28;20023;-89
2022/07/08 09:51:17;;;;;;;1.65;0.20;;;21.80;78.30;;;;;;5057266;28;20107;-91
2022/07/08 09:53:50;;;;;;;0.90;0.20;;;22.10;76.90;;;;;;5064835;28;20030;-91
2022/07/08 09:56:15;;;;;;;2.20;0.50;;;21.70;77.80;;;;;;5049219;28;20017;-90
2022/07/08 09:58:42;;;;;;;2.17;0.30;;;21.30;78.60;;;;;;5057633;28;21237;-89
2022/07/08 10:01:07;;;;;;;0.95;0.20;;;21.00;79.10;;;;;;5064246;28;20077;-89
2022/07/08 10:03:35;;;;;;;2.08;0.52;;;21.30;79.20;;;;;;5068213;28;20029;-89
2022/07/08 10:06:02;;;;;;;1.58;0.52;;;21.60;78.90;;;;;;5071536;28;20017;-89
2022/07/08 10:08:28;;;;;;;3.33;0.30;;;21.70;78.00;;;;;;5051965;28;20066;-88
2022/07/08 10:11:05;;;;;;;1.10;0.30;;;22.10;78.40;;;;;;5085057;28;20024;-91
2022/07/08 10:13:32;;;;;;;1.33;0.20;;;22.30;75.50;;;;;;5054031;28;20096;-90
2022/07/08 10:16:03;;;;;;;2.17;0.40;;;22.50;76.40;;;;;;5062733;28;20030;-91
2022/07/08 10:18:40;;;;;;;1.25;0.30;;;22.10;75.90;;;;;;5051110;28;20400;-90
2022/07/08 10:21:10;;;;;;;1.75;0.35;;;22.30;75.70;;;;;;5062053;28;20093;-90
2022/07/08 10:23:44;;;;;;;1.02;0.20;;;22.30;75.80;;;;;;5049637;28;20028;-90
2022/07/08 10:26:11;;;;;;;0.80;0.20;;;22.70;76.80;;;;;;5085462;28;20032;-90
2022/07/08 10:28:44;;;;;;;2.35;0.28;;;23.00;76.30;;;;;;5061330;28;20393;-89
2022/07/08 10:31:22;;;;;;;1.40;0.30;;;23.20;75.20;;;;;;5059462;28;20063;-91
2022/07/08 10:33:48;;;;;;;0.73;0.20;;;23.40;73.80;;;;;;5086003;28;20085;-90
2022/07/08 10:36:19;;;;;;;1.63;0.45;;;23.30;74.00;;;;;;5062184;28;20045;-89
2022/07/08 10:38:45;;;;;;;1.70;0.20;;;23.10;73.70;;;;;;5059748;28;20028;-88
2022/07/08 10:41:13;;;;;;;2.00;0.20;;;22.90;74.20;;;;;;5054328;28;20052;-89
2022/07/08 10:43:58;;;;;;;1.13;0.40;;;23.00;74.80;;;;;;5056630;28;20021;-89
2022/07/08 10:46:29;;;;;;;1.33;0.28;;;23.40;74.40;;;;;;5055974;28;20028;-89
2022/07/08 10:48:57;;;;;;;;;;;23.50;73.20;;;;;;5070252;28;20080;-89
2022/07/08 10:51:26;;;;;;;0.40;0.20;;;23.30;73.30;;;;;;5070963;28;19912;-89
2022/07/08 10:53:53;;;;;;;0.63;0.28;;;23.50;74.10;;;;;;5046027;28;20021;-90
2022/07/08 10:56:50;;;;;;;1.90;0.30;;;23.50;72.80;;;;;;5059073;28;20542;-90
2022/07/08 10:59:19;;;;;;;0.85;0.20;;;23.50;73.20;;;;;;5071900;28;20032;-90
2022/07/08 11:01:54;;;;;;;1.33;0.22;;;23.50;73.90;;;;;;5054710;28;20499;-89
2022/07/08 11:04:53;;;;;;;1.08;0.35;;;23.70;74.10;;;;;;5072846;28;20029;-89
2022/07/08 11:07:20;;;;;;;0.93;0.32;;;23.30;73.60;;;;;;5067719;22;20344;-86
2022/07/08 11:09:50;;;;;;;3.20;0.68;;;23.50;73.40;;;;;;5096396;28;20024;-85
2022/07/08 11:12:24;;;;;;;1.73;0.28;;;23.60;72.90;;;;;;5084017;28;20024;-86
2022/07/08 11:14:58;;;;;;;1.67;0.30;;;23.70;72.70;;;;;;5085750;28;20023;-86
2022/07/08 11:17:30;;;;;;;1.95;0.30;;;23.80;72.40;;;;;;5087937;28;20027;-86
2022/07/08 11:19:58;;;;;;;1.05;0.30;;;23.80;72.60;;;;;;5090061;28;20019;-85
2022/07/08 11:22:25;;;;;;;1.52;0.32;;;23.90;72.70;;;;;;5092774;28;20714;-86
2022/07/08 11:24:51;;;;;;;2.30;0.40;;;24.20;72.40;;;;;;5086619;28;20491;-85
2022/07/08 11:27:26;;;;;;;1.55;0.28;;;24.40;71.30;;;;;;5089770;28;20031;-86
2022/07/08 11:29:54;;;;;;;0.30;0.20;;;24.10;70.40;;;;;;5097850;28;20123;-85
2022/07/08 11:32:21;;;;;;;2.10;0.30;;;24.20;70.40;;;;;;5089262;28;20024;-85
2022/07/08 11:34:48;;;;;;;1.17;0.20;;;24.40;70.30;;;;;;5078951;28;20537;-85
2022/07/08 11:37:14;;;;;;;0.68;0.20;;;24.50;70.40;;;;;;5078230;28;20060;-85
2022/07/08 11:39:42;;;;;;;0.60;0.15;;;24.60;69.50;;;;;;5081756;28;20017;-87
2022/07/08 11:42:09;;;;;;;0.85;0.13;;;25.10;69.00;;;;;;5099732;28;20016;-87
2022/07/08 11:44:35;;;;;;;0.85;0.25;;;24.90;69.50;;;;;;5097755;28;20078;-88
2022/07/08 11:47:00;;;;;;;1.55;0.45;;;25.20;69.90;;;;;;5080799;28;20030;-87
2022/07/08 11:49:29;;;;;;;0.28;0.10;;;25.30;69.10;;;;;;5099292;28;20016;-87
2022/07/08 11:51:57;;;;;;;0.55;0.20;;;25.40;68.10;;;;;;5080228;28;20026;-87
2022/07/08 11:54:24;;;;;;;0.70;0.25;;;25.70;68.20;;;;;;5096236;28;20016;-87
2022/07/08 11:56:58;;;;;;;0.47;0.10;;;25.90;66.80;;;;;;5085816;28;20092;-88
2022/07/08 11:59:26;;;;;;;1.60;0.40;;;25.90;66.60;;;;;;5111516;28;20088;-88
2022/07/08 12:01:53;;;;;;;3.75;0.20;;;25.90;66.80;;;;;;5105216;28;20023;-89
2022/07/08 12:04:20;;;;;;;5.65;0.30;;;26.00;66.40;;;;;;5100054;28;20084;-88
2022/07/08 12:06:47;;;;;;;0.75;0.17;;;25.90;66.40;;;;;;5095956;28;20059;-88
2022/07/08 12:09:14;;;;;;;0.52;0.17;;;25.90;66.30;;;;;;5111341;28;20023;-88
2022/07/08 12:11:42;;;;;;;4.13;0.68;;;26.20;67.90;;;;;;5094408;28;20020;-89
2022/07/08 12:14:11;;;;;;;0.63;0.22;;;26.00;65.80;;;;;;5095110;28;20020;-88
2022/07/08 12:17:04;;;;;;;0.68;0.20;;;25.70;66.00;;;;;;5096561;28;20020;-88
2022/07/08 12:19:46;;;;;;;0.15;0.10;;;25.50;67.80;;;;;;5086767;28;20061;-89
2022/07/08 12:22:17;;;;;;;1.75;0.40;;;25.80;65.90;;;;;;5086216;28;20030;-89
2022/07/08 12:24:42;;;;;;;0.63;0.30;;;25.80;66.10;;;;;;5074668;28;20023;-89
2022/07/08 12:27:32;;;;;;;1.55;0.20;;;25.80;66.40;;;;;;5089066;28;20100;-89
2022/07/08 12:30:08;;;;;;;0.57;0.22;;;25.90;68.60;;;;;;5083313;28;20066;-89
2022/07/08 12:32:50;;;;;;;1.60;0.55;;;26.10;65.30;;;;;;5110545;28;20023;-89
2022/07/08 12:35:18;;;;;;;0.10;0.10;;;25.80;65.40;;;;;;5092254;28;21358;-88
2022/07/08 12:37:47;;;;;;;1.13;0.30;;;26.00;65.30;;;;;;5104525;28;20024;-88
2022/07/08 12:40:17;;;;;;;1.83;0.20;;;26.30;65.40;;;;;;5082176;28;20048;-89
2022/07/08 12:43:00;;;;;;;1.17;0.40;;;26.30;65.20;;;;;;5088593;28;20024;-89
2022/07/08 12:45:29;;;;;;;1.05;0.10;;;26.10;65.30;;;;;;5103897;28;20027;-89
2022/07/08 12:48:02;;;;;;;1.60;0.20;;;26.00;66.00;;;;;;5103759;28;20055;-89
2022/07/08 12:50:32;;;;;;;0.88;0.32;;;25.50;66.20;;;;;;5101683;28;20118;-88
2022/07/08 12:53:09;;;;;;;1.63;0.28;;;25.90;65.20;;;;;;5079916;28;20084;-89
2022/07/08 12:55:35;;;;;;;1.95;0.30;;;26.20;65.70;;;;;;5083174;28;20689;-89
2022/07/08 12:58:01;;;;;;;1.40;0.20;;;26.10;65.30;;;;;;5083537;28;20034;-89
2022/07/08 13:00:29;;;;;;;0.90;0.17;;;26.50;65.30;;;;;;5101362;28;20040;-89
2022/07/08 13:02:55;;;;;;;0.75;0.13;;;27.00;65.70;;;;;;5081829;28;20028;-88
2022/07/08 13:05:21;;;;;;;1.15;0.20;;;26.60;64.50;;;;;;5082429;28;20372;-88
2022/07/08 13:07:47;;;;;;;0.68;0.20;;;26.70;64.80;;;;;;5087657;28;20023;-88
2022/07/08 13:10:12;;;;;;;0.85;0.20;;;27.00;66.10;;;;;;5089770;28;20572;-89
2022/07/08 13:12:38;;;;;;;0.38;0.15;;;27.30;65.40;;;;;;5106887;28;20475;-88
2022/07/08 13:15:04;;;;;;;0.50;0.10;;;27.40;64.40;;;;;;5100141;28;20027;-89
2022/07/08 13:17:32;;;;;;;1.80;0.10;;;27.30;62.70;;;;;;5082094;28;20023;-88
2022/07/08 13:20:01;;;;;;;0.70;0.15;;;27.40;63.90;;;;;;5079039;28;20407;-89
2022/07/08 13:22:41;;;;;;;0.68;0.15;;;27.60;63.80;;;;;;5081287;28;20112;-89